createdAt,value
2023-03-23T15:59:03.725Z,57.82
2023-03-23T16:04:10.404Z,57.72
2023-03-23T16:09:03.577Z,58.04
2023-03-23T16:13:55.865Z,59.10
2023-03-23T16:19:28.184Z,59.58
2023-03-23T16:24:19.865Z,61.00
2023-03-23T16:29:24.392Z,61.56
2023-03-23T16:34:28.953Z,62.45
2023-03-23T16:39:20.528Z,62.31
2023-03-23T16:44:12.712Z,63.58
2023-03-23T16:49:04.367Z,64.15
2023-03-23T16:53:56.201Z,64.40
2023-03-23T16:58:48.002Z,67.95
2023-03-23T17:03:41.865Z,71.49
2023-03-23T17:08:34.592Z,73.24
2023-03-23T17:13:28.049Z,73.81
2023-03-23T17:18:19.788Z,73.03
2023-03-23T17:23:11.590Z,72.39
2023-03-23T17:28:05.821Z,72.63
2023-03-23T17:32:58.630Z,73.79
2023-03-23T17:37:50.332Z,74.52
2023-03-23T17:42:42.133Z,74.99
2023-03-23T17:47:34.024Z,75.72
2023-03-23T17:52:26.185Z,76.52
2023-03-23T17:57:18.025Z,77.23
2023-03-23T18:02:11.371Z,78.38
2023-03-23T18:07:03.064Z,79.17
2023-03-23T18:11:56.678Z,79.66
2023-03-23T18:16:48.595Z,80.25
2023-03-23T18:21:40.628Z,80.79
2023-03-23T18:26:32.283Z,80.84
2023-03-23T18:31:24.067Z,80.12
2023-03-23T18:36:18.387Z,80.77
2023-03-23T18:41:11.428Z,80.36
2023-03-23T18:46:03.434Z,80.47
2023-03-23T18:50:57.992Z,80.17
2023-03-23T18:55:51.405Z,80.89
2023-03-23T19:00:43.833Z,80.75
2023-03-23T19:05:38.681Z,81.23
2023-03-23T19:10:31.290Z,81.06
2023-03-23T19:15:24.441Z,81.08
2023-03-23T19:20:23.685Z,81.02
2023-03-23T19:25:27.925Z,81.04
2023-03-23T19:30:20.044Z,81.49
2023-03-23T19:35:12.258Z,81.32
2023-03-23T19:40:22.676Z,81.44
2023-03-23T19:45:18.386Z,82.36
2023-03-23T19:50:10.352Z,82.26
2023-03-23T19:55:02.215Z,82.94
2023-03-23T19:59:53.810Z,83.31
2023-03-23T20:04:46.034Z,83.12
2023-03-23T20:09:38.569Z,83.32
2023-03-23T20:14:30.506Z,84.03
2023-03-23T20:19:22.085Z,85.07
2023-03-23T20:24:13.929Z,85.09
2023-03-23T20:29:07.689Z,85.17
2023-03-23T20:34:03.899Z,85.87
2023-03-23T20:38:57.336Z,86.37
2023-03-23T20:43:48.971Z,86.89
2023-03-23T20:48:40.631Z,87.04
2023-03-23T20:53:33.676Z,87.04
2023-03-23T20:58:27.516Z,87.31
2023-03-23T21:03:19.099Z,87.79
2023-03-23T21:08:11.587Z,88.38
2023-03-23T21:13:04.484Z,89.40
2023-03-23T21:17:56.382Z,89.76
2023-03-23T21:22:48.167Z,90.84
2023-03-23T21:27:39.927Z,91.25
2023-03-23T21:32:32.136Z,92.19
2023-03-23T21:37:24.063Z,92.92
2023-03-23T21:42:15.693Z,93.46
2023-03-23T21:47:07.361Z,93.89
2023-03-23T21:51:59.121Z,94.68
2023-03-23T21:56:51.209Z,95.38
2023-03-23T22:01:42.845Z,96.41
2023-03-23T22:06:35.100Z,97.34
2023-03-23T22:11:30.952Z,97.13
2023-03-23T22:16:23.811Z,96.97
2023-03-23T22:21:17.135Z,96.69
2023-03-23T22:26:10.110Z,96.64
2023-03-23T22:31:05.318Z,96.05
2023-03-23T22:35:57.575Z,96.86
2023-03-23T22:40:57.463Z,96.80
2023-03-23T22:45:51.512Z,98.13
2023-03-23T22:50:43.544Z,98.81
2023-03-23T22:55:35.280Z,98.81
2023-03-23T23:00:27.569Z,98.62
2023-03-23T23:05:19.325Z,98.65
2023-03-23T23:10:11.058Z,98.46
2023-03-23T23:15:05.858Z,96.69
2023-03-23T23:19:58.944Z,96.13
2023-03-23T23:24:50.603Z,93.52
2023-03-23T23:29:42.303Z,91.31
2023-03-23T23:34:34.916Z,90.88
2023-03-23T23:39:27.784Z,92.26
2023-03-23T23:44:19.458Z,93.69
2023-03-23T23:49:11.092Z,93.63
2023-03-23T23:54:04.748Z,92.95
2023-03-23T23:58:56.948Z,91.22
